Tiempo atmosférico en la estación meteorológica de Alcalá del Júcar, Albacete (680 m.)



Fecha
DESCASC
Temp. máxima en grados centígrados (hora)
DESCASC
Temp. mínima en grados centígrados (hora)
DESCASC
Temp. media en grados centígrados
DESCASC
Racha de viento máxima en m/sg (hora)
DESCASC
Velocidad máxima media en intervalos de 10 minutos(hora)
DESCASC
Precipitaciones diarias en mm
DESCASC
Precipitaciones de 00:00 a 06:00 en mm
DESCASC
Precipitaciones de 06:00 a 12:00 en mm
DESCASC
Precipitaciones de 12:00 a 18:00 en mm
DESCASC
Precipitaciones de 18:00 a 24:00 en mm
DESCASC
04-03-2021 15.3 (16:50) 5.3 (08:10) 10.3 6.39 (18:20) 3.33 (14:00) 0 0 0 0 0
03-03-2021 11.6 (16:00) 7.8 (23:59) 9.7 6.94 (02:00) 2.5 (13:50) 0 0 0 0 0
02-03-2021 9.4 (15:30) 7.6 (04:50) 8.5 7.78 (15:00) 2.78 (04:00) 0.2 0 0.2 0 0
01-03-2021 9.4 (15:10) 7.4 (00:00) 8.4 11.11 (07:50) 4.17 (08:10) 0.2 0 0 0 0.2
28-02-2021 11.8 (14:20) 5.5 (00:00) 8.7 9.44 (15:30) 5.83 (16:10) 0 0 0 0 0
27-02-2021 18.4 (16:50) 2 (00:00) 10.2 7.5 (12:50) 3.33 (14:50) 0 0 0 0 0
26-02-2021 15.1 (16:50) 5 (00:00) 10.1 8.33 (08:30) 3.89 (12:50) 0 0 0 0 0
25-02-2021 16.6 (16:50) 3.1 (00:00) 9.9 8.61 (19:30) 4.17 (19:30) 0 0 0 0 0
24-02-2021 15.4 (16:50) 5.5 (00:00) 10.4 7.78 (15:30) 3.61 (19:00) 0 0 0 0 0
23-02-2021 13.3 (17:10) 5.9 (00:00) 9.6 6.39 (14:40) 3.33 (12:00) 0 0 0 0 0
22-02-2021 8.7 (15:50) 5.6 (00:00) 7.1 10.83 (04:00) 6.11 (04:00) 0.2 0.2 0 0 0
21-02-2021 10.9 (17:00) 6.7 (00:00) 8.8 13.89 (22:10) 6.67 (22:20) 8.8 0 0 0 8.8
20-02-2021 21.3 (15:30) 3.9 (00:00) 12.6 10 (23:59) 5.83 (15:40) 0 0 0 0 0
19-02-2021 23.1 (16:40) 2.3 (00:00) 12.7 9.72 (22:10) 4.44 (22:30) 0 0 0 0 0
18-02-2021 19.5 (15:40) 1.1 (00:00) 10.3 7.22 (15:50) 4.17 (15:50) 0 0 0 0 0
17-02-2021 22.6 (16:40) 1.1 (00:00) 11.9 3.61 (17:00) 1.67 (16:40) 0 0 0 0 0
16-02-2021 19.5 (16:40) -0.5 (-00:0) 9.5 5.83 (16:20) 3.33 (14:50) 0 0 0 0 0
15-02-2021 14.4 (16:40) 4.5 (00:00) 9.4 6.94 (14:10) 4.17 (14:10) 0 0 0 0 0
14-02-2021 15.7 (16:30) 1 (00:00) 8.3 8.61 (12:40) 3.61 (12:40) 0 0 0 0 0
13-02-2021 16.4 (16:30) 4.3 (00:00) 10.3 10.28 (15:20) 5.83 (15:20) 0 0 0 0 0
12-02-2021 15.7 (16:30) 7.8 (00:00) 11.8 13.61 (16:20) 7.78 (16:40) 0 0 0 0 0
11-02-2021 13.6 (16:10) 4.7 (00:00) 9.2 9.44 (12:50) 5.83 (13:40) 0 0 0 0 0
10-02-2021 14.9 (16:30) 7.1 (00:00) 11 18.33 (05:30) 9.72 (05:20) 3.6 3.4 0.2 0 0
09-02-2021 12.5 (15:20) 5.9 (00:00) 9.2 18.06 (15:30) 9.17 (15:30) 0.8 0 0 0 0.8
08-02-2021 11 (14:00) 5.4 (00:00) 8.2 16.94 (14:20) 10 (12:40) 9.4 0 2.4 7 0
07-02-2021 11.1 (16:30) 5.9 (00:00) 8.5 12.78 (20:40) 6.94 (22:50) 0 0 0 0 0
06-02-2021 12.8 (14:50) 4.5 (00:00) 8.7 11.11 (15:00) 6.11 (15:10) 1.6 0.4 0 0 1.2
05-02-2021 13.7 (14:20) 7 (00:00) 10.3 10.83 (18:00) 6.11 (14:40) 0 0 0 0 0
04-02-2021 18.6 (15:30) 5.4 (00:00) 12 7.5 (10:50) 4.44 (10:40) 0 0 0 0 0

Gráficas

Temp. máximas Temp. mínimas Temp. medias Precipitaciones Rachas de viento máximas Velocidades máximas media en intervalos de 10 minutos

Datos horarios

Fecha y hora oficial Temperatura (ºC) Velocidad del viento (km/h) Dirección del viento Racha (km/h) Dirección de racha Precipitación (mm) Presión (hPa) Tendencia (hPa) Humedad (%)
2021-03-05 23:00:00 8.2 9 Nordeste 17 Nordeste 0 -- -- 84
2021-03-05 22:00:00 8.1 5 Nordeste 9 Nordeste 0 -- -- 82
2021-03-05 21:00:00 8.6 4 Este 17 Sudeste 0 -- -- 80
2021-03-05 20:00:00 9.6 10 Sudeste 20 Sudeste 0 -- -- 75
2021-03-05 19:00:00 11.1 6 Sudeste 15 Sudeste 0 -- -- 69
2021-03-05 18:00:00 11.9 5 Este 14 Sudeste 0 -- -- 65
2021-03-05 17:00:00 11.9 9 Sudeste 15 Este 0 -- -- 64
2021-03-05 16:00:00 12.8 6 Este 15 Sudeste 0 -- -- 61
2021-03-05 15:00:00 11.8 5 Este 15 Sudeste 0 -- -- 66
2021-03-05 14:00:00 11.7 6 Este 17 Sudeste 0 -- -- 65
2021-03-05 13:00:00 11.6 9 Sudeste 18 Sudeste 0 -- -- 63
2021-03-05 12:00:00 11.2 8 Sudeste 17 Nordeste 0 -- -- 70
2021-03-05 11:00:00 9.2 5 Nordeste 16 Nordeste 0 -- -- 79
2021-03-05 10:00:00 7.2 5 Nordeste 13 Nordeste 0 -- -- 89
2021-03-05 09:00:00 5.6 3 Este 12 Nordeste 0 -- -- 93
2021-03-05 08:00:00 4.9 8 Nordeste 13 Nordeste 0 -- -- 94
2021-03-05 07:00:00 4.6 2 Este 10 Norte 0 -- -- 94
2021-03-05 06:00:00 4.3 2 Este 13 Nordeste 0 -- -- 94
2021-03-05 05:00:00 4 6 Nordeste 15 Nordeste 0 -- -- 93
2021-03-05 04:00:00 3.1 10 Nordeste 17 Este 0 -- -- 92
2021-03-05 03:00:00 4.1 6 Nordeste 14 Este 0 -- -- 88
2021-03-05 02:00:00 5.5 2 Este 6 Este 0 -- -- 88
2021-03-05 01:00:00 5.4 0 Calma 5 Este 0 -- -- 87
2021-03-05 00:00:00 5.7 0 Calma 8 Sur 0 -- -- 85
2021-03-04 23:00:00 6.5 4 Este 18 Sudeste 0 -- -- 84
2021-03-04 22:00:00 7.4 5 Este 16 Este 0 -- -- 81
2021-03-04 21:00:00 8.3 6 Este 15 Este 0 -- -- 78
2021-03-04 20:00:00 9.6 5 Este 19 Este 0 -- -- 71
2021-03-04 19:00:00 11 6 Este 23 Este 0 -- -- 62
2021-03-04 18:00:00 13.4 8 Sudeste 19 Sudeste 0 -- -- 55
2021-03-04 17:00:00 15.2 8 Este 22 Sudeste 0 -- -- 48
2021-03-04 16:00:00 14.6 8 Este 21 Sudeste 0 -- -- 53
2021-03-04 15:00:00 14.1 9 Sudeste 20 Este 0 -- -- 55
2021-03-04 14:00:00 14.2 12 Sudeste 21 Sudeste 0 -- -- 55
2021-03-04 13:00:00 13.4 9 Sudeste 18 Sudeste 0 -- -- 59
2021-03-04 12:00:00 11.9 8 Sudeste 19 Sudeste 0 -- -- 66
2021-03-04 11:00:00 9.8 6 Este 13 Sudeste 0 -- -- 85
2021-03-04 10:00:00 7.4 3 Este 9 Este 0 -- -- 95
2021-03-04 09:00:00 5.8 3 Este 6 Nordeste 0 -- -- 94
2021-03-04 08:00:00 5.4 2 Este 9 Nordeste 0 -- -- 93
2021-03-04 07:00:00 5.4 4 Nordeste 9 Nordeste 0 -- -- 93
2021-03-04 06:00:00 5.6 3 Nordeste 10 Nordeste 0 -- -- 92
2021-03-04 05:00:00 6.2 4 Nordeste 8 Nordeste 0 -- -- 91
2021-03-04 04:00:00 6.6 2 Este 8 Nordeste 0 -- -- 91
2021-03-04 03:00:00 6.7 0 Calma 6 Este 0 -- -- 90
2021-03-04 02:00:00 6.9 2 Este 12 Este 0 -- -- 89
2021-03-04 01:00:00 7.5 4 Este 16 Sudeste 0 -- -- 89
2021-03-04 00:00:00 7.8 6 Sudeste 17 Sudeste 0 -- -- 88
2021-03-03 23:00:00 8.1 4 Este 12 Sudeste 0 -- -- 87
2021-03-03 22:00:00 8.1 5 Sudeste 10 Sudeste 0 -- -- 87
2021-03-03 21:00:00 8 3 Este 12 Este 0 -- -- 85
2021-03-03 20:00:00 8.6 5 Este 13 Este 0 -- -- 83
2021-03-03 19:00:00 9.7 4 Este 15 Este 0 -- -- 79
2021-03-03 18:00:00 10.8 5 Este 17 Sudeste 0 -- -- 74
2021-03-03 17:00:00 11.3 8 Este 20 Sudeste 0 -- -- 74
2021-03-03 16:00:00 11.6 7 Este 17 Sudeste 0 -- -- 76
2021-03-03 15:00:00 11 7 Este 19 Este 0 -- -- 82
2021-03-03 14:00:00 11.1 8 Este 21 Sudeste 0 -- -- 82
2021-03-03 13:00:00 10 9 Sudeste 17 Sudeste 0 -- -- 87
2021-03-03 12:00:00 9.6 6 Sudeste 13 Sudeste 0 -- -- 91
2021-03-03 11:00:00 9.4 5 Este 14 Nordeste 0 -- -- 91
2021-03-03 10:00:00 9.1 4 Este 18 Nordeste 0 -- -- 91
2021-03-03 09:00:00 9.1 7 Nordeste 16 Este 0 -- -- 91
2021-03-03 08:00:00 8.8 6 Este 21 Este 0 -- -- 92
2021-03-03 07:00:00 8.8 6 Este 25 Este 0 -- -- 93
2021-03-03 06:00:00 9 5 Este 18 Este 0 -- -- 93
2021-03-03 05:00:00 9.1 8 Este 24 Este 0 -- -- 93
2021-03-03 04:00:00 9.1 8 Este 21 Sudeste 0 -- -- 94
2021-03-03 03:00:00 9.2 7 Nordeste 24 Este 0 -- -- 93
2021-03-03 02:00:00 9.2 8 Este 25 Sudeste 0 -- -- 93
2021-03-03 01:00:00 9.1 5 Este 17 Nordeste 0 -- -- 93
2021-03-03 00:00:00 9 5 Este 17 Sudeste 0 -- -- 92
2021-03-02 23:00:00 9 7 Este 19 Este 0 -- -- 92
2021-03-02 22:00:00 9 6 Este 18 Nordeste 0 -- -- 93
2021-03-02 21:00:00 8.9 8 Este 19 Este 0 -- -- 94
2021-03-02 20:00:00 9 6 Este 18 Este 0 -- -- 93
2021-03-02 19:00:00 9.1 4 Este 17 Este 0 -- -- 93
2021-03-02 18:00:00 9.2 7 Este 19 Este 0 -- -- 93
2021-03-02 17:00:00 9.3 8 Este 24 Este 0 -- -- 93
2021-03-02 16:00:00 9.3 8 Este 28 Este 0 -- -- 93
2021-03-02 15:00:00 9.3 9 Este 28 Este 0 -- -- 93
2021-03-02 14:00:00 9.2 6 Este 22 Nordeste 0 -- -- 93
2021-03-02 13:00:00 9 6 Este 25 Sudeste 0 -- -- 93
2021-03-02 12:00:00 8.8 9 Este 23 Este 0 -- -- 93
2021-03-02 11:00:00 8.6 8 Este 26 Este 0 -- -- 93
2021-03-02 10:00:00 8.3 8 Este 23 Este 0 -- -- 93
2021-03-02 09:00:00 8.1 8 Este 22 Sudeste 0.2 -- -- 92
2021-03-02 08:00:00 8 7 Este 23 Este 0 -- -- 93
2021-03-02 07:00:00 7.9 6 Este 21 Este 0 -- -- 93
2021-03-02 06:00:00 7.7 6 Este 21 Este 0 -- -- 93
2021-03-02 05:00:00 7.7 7 Este 23 Nordeste 0 -- -- 93
2021-03-02 04:00:00 7.8 10 Este 23 Este 0 -- -- 93
2021-03-02 03:00:00 7.8 9 Este 21 Nordeste 0 -- -- 93
2021-03-02 02:00:00 7.9 5 Este 22 Este 0 -- -- 92
2021-03-02 01:00:00 7.9 7 Este 23 Nordeste 0 -- -- 92
2021-03-02 00:00:00 7.7 8 Este 25 Este 0 -- -- 92
2021-03-01 23:00:00 7.7 7 Este 24 Norte 0 -- -- 92
2021-03-01 22:00:00 7.8 6 Este 22 Este 0 -- -- 92
2021-03-01 21:00:00 7.7 7 Este 20 Nordeste 0.2 -- -- 92
2021-03-01 20:00:00 7.7 6 Este 22 Este 0 -- -- 91
2021-03-01 19:00:00 7.8 7 Este 22 Este 0 -- -- 90
2021-03-01 18:00:00 8.5 9 Este 23 Sudeste 0 -- -- 84
2021-03-01 17:00:00 9 9 Este 22 Nordeste 0 -- -- 79
2021-03-01 16:00:00 9.3 9 Este 27 Este 0 -- -- 78
2021-03-01 15:00:00 9.3 10 Este 28 Este 0 -- -- 79
2021-03-01 14:00:00 9 10 Este 28 Este 0 -- -- 83
2021-03-01 13:00:00 8.4 7 Este 26 Este 0 -- -- 88
2021-03-01 12:00:00 8.4 10 Nordeste 32 Sudeste 0 -- -- 84
2021-03-01 11:00:00 8.5 11 Este 26 Este 0 -- -- 85
2021-03-01 10:00:00 8.2 11 Este 30 Nordeste 0 -- -- 87
2021-03-01 09:00:00 8.1 8 Este 30 Sudeste 0 -- -- 85
2021-03-01 08:00:00 7.9 13 Este 40 Sudeste 0 -- -- 87
2021-03-01 07:00:00 7.8 8 Este 26 Este 0 -- -- 89
2021-03-01 06:00:00 7.5 10 Este 39 Nordeste 0 -- -- 92
2021-03-01 05:00:00 7.6 11 Nordeste 27 Este 0 -- -- 90
2021-03-01 04:00:00 7.5 5 Este 22 Nordeste 0 -- -- 90
2021-03-01 03:00:00 7.4 9 Nordeste 22 Sudeste 0 -- -- 89
2021-03-01 02:00:00 7.5 4 Nordeste 16 Este 0 -- -- 88
2021-03-01 01:00:00 7.4 5 Este 21 Nordeste 0 -- -- 86
2021-03-01 00:00:00 7.4 7 Este 20 Este 0 -- -- 84
2021-02-28 23:00:00 7.5 5 Este 18 Este 0 -- -- 82
2021-02-28 22:00:00 7.2 7 Este 23 Este 0 -- -- 82
2021-02-28 21:00:00 7.9 9 Este 23 Este 0 -- -- 80
2021-02-28 20:00:00 8.6 8 Este 24 Nordeste 0 -- -- 75
2021-02-28 19:00:00 9.3 7 Este 25 Este 0 -- -- 72
2021-02-28 18:00:00 10 10 Este 26 Sudeste 0 -- -- 71
2021-02-28 17:00:00 10.5 10 Este 32 Sudeste 0 -- -- 69
2021-02-28 16:00:00 10.8 15 Sudeste 34 Sudeste 0 -- -- 66
2021-02-28 15:00:00 11.5 15 Sudeste 30 Sudeste 0 -- -- 61
2021-02-28 14:00:00 11.4 15 Sudeste 27 Sudeste 0 -- -- 62
2021-02-28 13:00:00 10.8 11 Sudeste 25 Sudeste 0 -- -- 65
2021-02-28 12:00:00 10.1 13 Sudeste 27 Sudeste 0 -- -- 70
2021-02-28 11:00:00 9.2 8 Este 21 Este 0 -- -- 79
2021-02-28 10:00:00 7.8 9 Nordeste 16 Nordeste 0 -- -- 86
2021-02-28 09:00:00 6.9 6 Nordeste 12 Nordeste 0 -- -- 87
2021-02-28 08:00:00 6.7 3 Nordeste 14 Nordeste 0 -- -- 85
2021-02-28 07:00:00 6.6 6 Nordeste 13 Nordeste 0 -- -- 83
2021-02-28 06:00:00 7.2 0 Calma 12 Sudeste 0 -- -- 76
2021-02-28 05:00:00 7.2 7 Sudeste 18 Este 0 -- -- 78
2021-02-28 04:00:00 7.1 6 Sudeste 15 Sudeste 0 -- -- 80
2021-02-28 03:00:00 6.9 7 Sudeste 19 Sudeste 0 -- -- 83
2021-02-28 02:00:00 6.5 6 Este 21 Sudeste 0 -- -- 85
2021-02-28 01:00:00 5.8 7 Este 17 Nordeste 0 -- -- 87
2021-02-28 00:00:00 5.6 6 Nordeste 21 Nordeste 0 -- -- 84
2021-02-27 23:00:00 6.8 6 Nordeste 16 Sudeste 0 -- -- 76
2021-02-27 22:00:00 8 5 Nordeste 17 Nordeste 0 -- -- 73
2021-02-27 21:00:00 8.7 3 Este 13 Sudeste 0 -- -- 68
2021-02-27 20:00:00 10.5 5 Este 15 Este 0 -- -- 61
2021-02-27 19:00:00 12.9 5 Este 18 Sudeste 0 -- -- 52
2021-02-27 18:00:00 15.6 8 Sudeste 19 Sudeste 0 -- -- 41
2021-02-27 17:00:00 17.4 9 Este 23 Sudeste 0 -- -- 38
2021-02-27 16:00:00 17.5 8 Sudeste 23 Sudeste 0 -- -- 42
2021-02-27 15:00:00 16.9 10 Sudeste 25 Este 0 -- -- 39
2021-02-27 14:00:00 15.9 12 Sudeste 23 Sudeste 0 -- -- 42
2021-02-27 13:00:00 13.8 9 Este 27 Sudeste 0 -- -- 61
2021-02-27 12:00:00 11.3 7 Este 24 Este 0 -- -- 81
2021-02-27 11:00:00 7.7 5 Nordeste 15 Este 0 -- -- 96
2021-02-27 10:00:00 4.9 0 Calma 7 Nordeste 0 -- -- 96
2021-02-27 09:00:00 3.5 0 Calma 4 Sudeste 0 -- -- 95
2021-02-27 08:00:00 2.6 0 Calma 3 Sur 0 -- -- 94
2021-02-27 07:00:00 2.2 0 Calma 5 Este 0 -- -- 93
2021-02-27 06:00:00 2.3 0 Calma 9 Sur 0 -- -- 92
2021-02-27 05:00:00 3 3 Este 12 Este 0 -- -- 92
2021-02-27 04:00:00 3 4 Este 10 Nordeste 0 -- -- 91
2021-02-27 03:00:00 3.9 5 Nordeste 8 Nordeste 0 -- -- 90
2021-02-27 02:00:00 4.2 3 Este 7 Este 0 -- -- 89
2021-02-27 01:00:00 4.7 3 Este 7 Este 0 -- -- 89
2021-02-27 00:00:00 5 3 Este 7 Este 0 -- -- 88
2021-02-26 23:00:00 5.3 3 Nordeste 6 Este 0 -- -- 85
2021-02-26 22:00:00 6.5 0 Calma 5 Este 0 -- -- 82
2021-02-26 21:00:00 7.6 2 Este 12 Este 0 -- -- 80
2021-02-26 20:00:00 8.9 4 Sudeste 15 Sudeste 0 -- -- 76
2021-02-26 19:00:00 10.6 8 Sudeste 19 Sudeste 0 -- -- 71
2021-02-26 18:00:00 12.5 8 Sudeste 20 Sudeste 0 -- -- 65
2021-02-26 17:00:00 14.3 8 Sudeste 21 Sudeste 0 -- -- 58
2021-02-26 16:00:00 14.3 9 Sudeste 19 Sudeste 0 -- -- 62
2021-02-26 15:00:00 14.6 10 Sudeste 23 Sudeste 0 -- -- 60
2021-02-26 14:00:00 13.7 10 Sudeste 27 Este 0 -- -- 63
2021-02-26 13:00:00 13.4 10 Este 25 Sudeste 0 -- -- 64
2021-02-26 12:00:00 12.2 8 Este 21 Este 0 -- -- 69
2021-02-26 11:00:00 10.6 10 Este 24 Sudeste 0 -- -- 77
2021-02-26 10:00:00 9.5 7 Este 21 Nordeste 0 -- -- 80
2021-02-26 09:00:00 8.6 7 Este 30 Sudeste 0 -- -- 84
2021-02-26 08:00:00 7.7 8 Este 25 Este 0 -- -- 87
2021-02-26 07:00:00 7.6 6 Nordeste 17 Este 0 -- -- 87
2021-02-26 06:00:00 7.8 8 Este 17 Nordeste 0 -- -- 87
2021-02-26 05:00:00 7.9 6 Nordeste 16 Nordeste 0 -- -- 87
2021-02-26 04:00:00 7.9 5 Nordeste 14 Nordeste 0 -- -- 88
2021-02-26 03:00:00 8.2 5 Nordeste 19 Nordeste 0 -- -- 87
2021-02-26 02:00:00 8.3 7 Nordeste 20 Nordeste 0 -- -- 87
2021-02-26 01:00:00 8.5 9 Nordeste 17 Nordeste 0 -- -- 86
2021-02-26 00:00:00 9.1 5 Este 20 Sudeste 0 -- -- 86
2021-02-25 23:00:00 8.8 5 Nordeste 15 Nordeste 0 -- -- 85
2021-02-25 22:00:00 9.4 6 Este 22 Sudeste 0 -- -- 85
2021-02-25 21:00:00 9.8 13 Sudeste 26 Sudeste 0 -- -- 85
2021-02-25 20:00:00 10.4 10 Este 31 Este 0 -- -- 82
2021-02-25 19:00:00 11.6 8 Este 24 Sudeste 0 -- -- 76
2021-02-25 18:00:00 13.5 6 Este 24 Este 0 -- -- 69
2021-02-25 17:00:00 15.6 6 Este 23 Nordeste 0 -- -- 62
2021-02-25 16:00:00 16.1 7 Nordeste 15 Nordeste 0 -- -- 60
2021-02-25 15:00:00 15.5 5 Nordeste 13 Nordeste 0 -- -- 58
2021-02-25 14:00:00 14.3 5 Este 13 Este 0 -- -- 69
2021-02-25 13:00:00 12.4 6 Nordeste 18 Nordeste 0 -- -- 75
2021-02-25 12:00:00 10.5 7 Este 20 Nordeste 0 -- -- 85
2021-02-25 11:00:00 8.6 8 Nordeste 17 Nordeste 0 -- -- 92
2021-02-25 10:00:00 7.1 7 Nordeste 15 Nordeste 0 -- -- 95
2021-02-25 09:00:00 5.2 5 Este 13 Este 0 -- -- 95
2021-02-25 08:00:00 4.6 4 Este 10 Este 0 -- -- 95
2021-02-25 07:00:00 3.7 4 Nordeste 9 Norte 0 -- -- 94
2021-02-25 06:00:00 3.1 3 Nordeste 9 Norte 0 -- -- 93
2021-02-25 05:00:00 3.3 3 Oeste 6 Oeste 0 -- -- 93
2021-02-25 04:00:00 4.4 0 Calma 6 Este 0 -- -- 93
2021-02-25 03:00:00 5 2 Este 13 Nordeste 0 -- -- 92
2021-02-25 02:00:00 4.5 9 Norte 13 Norte 0 -- -- 90
2021-02-25 01:00:00 5.7 0 Calma 6 Este 0 -- -- 90
2021-02-25 00:00:00 6.4 5 Nordeste 12 Nordeste 0 -- -- 90
2021-02-24 23:00:00 7.1 6 Nordeste 14 Nordeste 0 -- -- 89
2021-02-24 22:00:00 8 4 Nordeste 14 Este 0 -- -- 86
2021-02-24 21:00:00 8.6 5 Este 14 Este 0 -- -- 85
2021-02-24 20:00:00 9.8 5 Este 22 Sudeste 0 -- -- 79
2021-02-24 19:00:00 11.1 13 Sudeste 23 Sudeste 0 -- -- 70
2021-02-24 18:00:00 12.9 9 Este 21 Sudeste 0 -- -- 64
2021-02-24 17:00:00 14.7 10 Sudeste 24 Este 0 -- -- 59
2021-02-24 16:00:00 14.5 10 Este 28 Sudeste 0 -- -- 61
2021-02-24 15:00:00 14.8 10 Sudeste 25 Sudeste 0 -- -- 59
2021-02-24 14:00:00 13.4 10 Sudeste 22 Sudeste 0 -- -- 67
2021-02-24 13:00:00 12 6 Este 23 Sudeste 0 -- -- 79
2021-02-24 12:00:00 11 6 Este 13 Sudeste 0 -- -- 84
2021-02-24 11:00:00 9.9 4 Este 14 Este 0 -- -- 90
2021-02-24 10:00:00 9 5 Este 12 Sudeste 0 -- -- 93
2021-02-24 09:00:00 8.3 4 Nordeste 9 Nordeste 0 -- -- 94
2021-02-24 08:00:00 7.4 0 Calma 5 Este 0 -- -- 93
2021-02-24 07:00:00 7 4 Norte 9 Este 0 -- -- 93
2021-02-24 06:00:00 6.9 2 Este 9 Sudeste 0 -- -- 93
2021-02-24 05:00:00 5.9 2 Este 8 Este 0 -- -- 92
2021-02-24 04:00:00 5.8 3 Este 13 Nordeste 0 -- -- 92
2021-02-24 03:00:00 5.6 3 Nordeste 13 Nordeste 0 -- -- 91
2021-02-24 02:00:00 6 4 Nordeste 17 Nordeste 0 -- -- 90
2021-02-24 01:00:00 6.3 5 Nordeste 14 Este 0 -- -- 86
2021-02-24 00:00:00 6.9 6 Este 18 Sudeste 0 -- -- 86
2021-02-23 23:00:00 7 5 Nordeste 13 Nordeste 0 -- -- 85
2021-02-23 22:00:00 7.7 5 Nordeste 16 Sudeste 0 -- -- 81
2021-02-23 21:00:00 8.5 6 Sudeste 18 Este 0 -- -- 79
2021-02-23 20:00:00 9.4 7 Sudeste 15 Este 0 -- -- 74
2021-02-23 19:00:00 10.8 6 Este 15 Este 0 -- -- 68
2021-02-23 18:00:00 12.7 5 Este 15 Nordeste 0 -- -- 60
2021-02-23 17:00:00 13.1 6 Este 14 Nordeste 0 -- -- 58
2021-02-23 16:00:00 12.8 5 Nordeste 21 Nordeste 0 -- -- 57
2021-02-23 15:00:00 12.4 10 Nordeste 23 Nordeste 0 -- -- 63
2021-02-23 14:00:00 12 7 Nordeste 21 Nordeste 0 -- -- 66
2021-02-23 13:00:00 12 9 Nordeste 22 Sudeste 0 -- -- 68
2021-02-23 12:00:00 11.1 12 Sudeste 21 Sudeste 0 -- -- 70
2021-02-23 11:00:00 8.7 7 Este 23 Sudeste 0 -- -- 81
2021-02-23 10:00:00 7.6 2 Este 10 Este 0 -- -- 88
2021-02-23 09:00:00 6.8 3 Este 8 Este 0 -- -- 89
2021-02-23 08:00:00 6.6 3 Este 7 Este 0 -- -- 89
2021-02-23 07:00:00 6.3 0 Calma 5 Sudeste 0 -- -- 88
2021-02-23 06:00:00 6 0 Calma 5 Sudeste 0 -- -- 88
2021-02-23 05:00:00 5.9 2 Sudoeste 5 Sur 0 -- -- 88
2021-02-23 04:00:00 6 0 Calma 5 Noroeste 0 -- -- 87
2021-02-23 03:00:00 6 0 Calma 8 Oeste 0 -- -- 86
2021-02-23 02:00:00 6.1 2 Oeste 4 Sudoeste 0 -- -- 86
2021-02-23 01:00:00 6.1 0 Calma 8 Sudeste 0 -- -- 85
2021-02-23 00:00:00 6.6 2 Este 5 Sudeste 0 -- -- 83
2021-02-22 23:00:00 7.1 3 Sudoeste 9 Oeste 0 -- -- 81
2021-02-22 22:00:00 7.3 6 Oeste 12 Oeste 0 -- -- 80
2021-02-22 21:00:00 7.5 6 Oeste 13 Oeste 0 -- -- 78
2021-02-22 20:00:00 7.8 6 Oeste 14 Oeste 0 -- -- 77
2021-02-22 19:00:00 8 8 Oeste 18 Oeste 0 -- -- 76
2021-02-22 18:00:00 8.2 9 Oeste 30 Oeste 0 -- -- 76
2021-02-22 17:00:00 8.2 16 Noroeste 29 Oeste 0 -- -- 75
2021-02-22 16:00:00 8.6 14 Oeste 31 Noroeste 0 -- -- 74
2021-02-22 15:00:00 8.2 18 Noroeste 30 Noroeste 0 -- -- 74
2021-02-22 14:00:00 7.8 17 Oeste 34 Oeste 0 -- -- 75
2021-02-22 13:00:00 7.3 14 Oeste 35 Oeste 0 -- -- 79
2021-02-22 12:00:00 7 17 Oeste 31 Oeste 0 -- -- 79
2021-02-22 11:00:00 6.5 14 Oeste 32 Oeste 0 -- -- 82
2021-02-22 10:00:00 5.9 17 Oeste 32 Oeste 0 -- -- 85
2021-02-22 09:00:00 5.8 15 Oeste 29 Oeste 0 -- -- 85
2021-02-22 08:00:00 5.8 12 Oeste 26 Oeste 0 -- -- 86
2021-02-22 07:00:00 5.9 14 Oeste 27 Oeste 0 -- -- 87
2021-02-22 06:00:00 5.6 13 Oeste 32 Oeste 0 -- -- 88
2021-02-22 05:00:00 5.7 14 Oeste 36 Oeste 0 -- -- 88
2021-02-22 04:00:00 6.1 22 Oeste 39 Oeste 0 -- -- 88
2021-02-22 03:00:00 6.3 20 Oeste 38 Oeste 0 -- -- 88
2021-02-22 02:00:00 6.5 13 Oeste 31 Oeste 0 -- -- 90
2021-02-22 01:00:00 6.7 11 Oeste 19 Oeste 0.2 -- -- 93
2021-02-22 00:00:00 6.8 4 Sudoeste 24 Oeste 3.2 -- -- 92
2021-02-21 23:00:00 6.8 16 Oeste 50 Oeste 5.6 -- -- 91
2021-02-21 22:00:00 9.8 7 Sudeste 19 Sudeste 0 -- -- 87
2021-02-21 21:00:00 10.1 8 Este 21 Sudeste 0 -- -- 86
2021-02-21 20:00:00 10.3 5 Este 15 Este 0 -- -- 86
2021-02-21 19:00:00 10.4 6 Este 23 Nordeste 0 -- -- 86
2021-02-21 18:00:00 10.7 10 Nordeste 23 Este 0 -- -- 85
2021-02-21 17:00:00 10.9 6 Este 22 Sudeste 0 -- -- 83
2021-02-21 16:00:00 10.5 9 Este 23 Sudeste 0 -- -- 85
2021-02-21 15:00:00 10.3 9 Este 30 Sudeste 0 -- -- 84
2021-02-21 14:00:00 10.4 12 Sudeste 31 Este 0 -- -- 83
2021-02-21 13:00:00 9.2 13 Este 38 Sudeste 0 -- -- 87
2021-02-21 12:00:00 8.5 15 Este 39 Sudeste 0 -- -- 90
2021-02-21 11:00:00 8.1 12 Este 36 Sudeste 0 -- -- 90
2021-02-21 10:00:00 8.3 13 Este 40 Este 0 -- -- 88
2021-02-21 09:00:00 7.7 11 Este 31 Sudeste 0 -- -- 89
2021-02-21 08:00:00 7.4 12 Este 31 Este 0 -- -- 89
2021-02-21 07:00:00 7.5 12 Este 28 Este 0 -- -- 89
2021-02-21 06:00:00 7.8 11 Nordeste 30 Nordeste 0 -- -- 91
2021-02-21 05:00:00 7.8 11 Nordeste 26 Nordeste 0 -- -- 89
2021-02-21 04:00:00 8.2 10 Nordeste 27 Este 0 -- -- 87
2021-02-21 03:00:00 8.5 9 Este 22 Nordeste 0 -- -- 83
2021-02-21 02:00:00 8.6 7 Este 40 Sudeste 0 -- -- 82
2021-02-21 01:00:00 8.4 18 Sudeste 33 Nordeste 0 -- -- 81
2021-02-21 00:00:00 8.3 14 Este 36 Este 0 -- -- 81
2021-02-20 23:00:00 8.2 12 Este 31 Este 0 -- -- 83
2021-02-20 22:00:00 8.2 11 Este 31 Sudeste 0 -- -- 83
2021-02-20 21:00:00 8.5 9 Nordeste 29 Nordeste 0 -- -- 82
2021-02-20 20:00:00 9.2 11 Nordeste 26 Nordeste 0 -- -- 79
2021-02-20 19:00:00 11 12 Nordeste 28 Nordeste 0 -- -- 71
2021-02-20 18:00:00 14.9 8 Este 30 Sudeste 0 -- -- 55
2021-02-20 17:00:00 20.1 11 Sudeste 33 Sur 0 -- -- 33
2021-02-20 16:00:00 20.9 15 Sur 33 Sudeste 0 -- -- 25
2021-02-20 15:00:00 20.6 13 Sur 26 Sur 0 -- -- 23
2021-02-20 14:00:00 20.6 12 Sur 23 Sudoeste 0 -- -- 24
2021-02-20 13:00:00 17.4 8 Sudeste 14 Sudeste 0 -- -- 42
2021-02-20 12:00:00 13.8 5 Este 18 Nordeste 0 -- -- 56
2021-02-20 11:00:00 9.7 4 Este 19 Nordeste 0 -- -- 70
2021-02-20 10:00:00 7.2 10 Nordeste 23 Nordeste 0 -- -- 78
2021-02-20 09:00:00 4.7 8 Nordeste 18 Nordeste 0 -- -- 84
2021-02-20 08:00:00 4 5 Este 15 Nordeste 0 -- -- 85
2021-02-20 07:00:00 4.3 7 Nordeste 18 Nordeste 0 -- -- 86
2021-02-20 06:00:00 4.7 9 Nordeste 15 Nordeste 0 -- -- 83
2021-02-20 05:00:00 5.7 7 Nordeste 12 Nordeste 0 -- -- 80
2021-02-20 04:00:00 6 5 Nordeste 15 Nordeste 0 -- -- 81
2021-02-20 03:00:00 6.4 9 Nordeste 14 Nordeste -- -- -- 79
2021-02-20 02:00:00 8.1 5 Nordeste 14 Nordeste 0 -- -- 69
2021-02-20 01:00:00 11.9 4 Este 22 Sudeste 0 -- -- 46
2021-02-20 00:00:00 12.2 8 Sudeste 26 Sur 0 -- -- 49
2021-02-19 23:00:00 12.6 9 Sur 35 Sudeste 0 -- -- 47
2021-02-19 22:00:00 13.3 15 Sur 30 Sudeste 0 -- -- 44
2021-02-19 21:00:00 13.6 10 Sur 22 Sur 0 -- -- 41
2021-02-19 20:00:00 14.7 8 Sur 18 Sur 0 -- -- 38
2021-02-19 19:00:00 17 5 Sudoeste 9 Sudoeste 0 -- -- 34
2021-02-19 18:00:00 20.7 5 Oeste 18 Sur 0 -- -- 26
2021-02-19 17:00:00 21.4 10 Sudoeste 21 Oeste 0 -- -- 23
2021-02-19 16:00:00 21.3 10 Oeste 22 Sudoeste 0 -- -- 24
2021-02-19 15:00:00 21.2 11 Sudoeste 23 Sudoeste 0 -- -- 24
2021-02-19 14:00:00 20.1 8 Oeste 20 Oeste 0 -- -- 29
2021-02-19 13:00:00 17.9 3 Noroeste 10 Sudoeste 0 -- -- 44
2021-02-19 12:00:00 14.3 4 Nordeste 8 Nordeste 0 -- -- 54
2021-02-19 11:00:00 10.7 5 Nordeste 9 Norte 0 -- -- 65
2021-02-19 10:00:00 6.6 0 Calma 6 Nordeste 0 -- -- 78
2021-02-19 09:00:00 3.1 0 Calma 4 Este 0 -- -- 84
2021-02-19 08:00:00 2.6 0 Calma 10 Nordeste 0 -- -- 82
2021-02-19 07:00:00 3 0 Calma 4 Nordeste 0 -- -- 80
2021-02-19 06:00:00 3.2 0 Calma 3 Norte 0 -- -- 77
2021-02-19 05:00:00 4.2 2 Norte 4 Norte 0 -- -- 75
2021-02-19 04:00:00 4.8 3 Noroeste 5 Noroeste 0 -- -- 74
2021-02-19 03:00:00 5.3 3 Oeste 10 Noroeste 0 -- -- 69
2021-02-19 02:00:00 5.7 6 Oeste 10 Noroeste 0 -- -- 67
2021-02-19 01:00:00 6.2 4 Noroeste 7 Noroeste 0 -- -- 63
2021-02-19 00:00:00 7.4 2 Oeste 5 Oeste 0 -- -- 59
2021-02-18 23:00:00 8.4 0 Calma 2 Oeste 0 -- -- 57
2021-02-18 22:00:00 9.6 0 Calma 3 Sudoeste 0 -- -- 52
2021-02-18 21:00:00 11.4 2 Oeste 10 Oeste 0 -- -- 47
2021-02-18 20:00:00 12.9 7 Noroeste 14 Noroeste 0 -- -- 42
2021-02-18 19:00:00 15 6 Noroeste 13 Noroeste 0 -- -- 36
2021-02-18 18:00:00 17.3 8 Noroeste 18 Noroeste 0 -- -- 33
2021-02-18 17:00:00 18.1 13 Noroeste 24 Oeste 0 -- -- 30
2021-02-18 16:00:00 19.3 15 Noroeste 26 Oeste 0 -- -- 34
2021-02-18 15:00:00 19 10 Noroeste 17 Oeste 0 -- -- 39
2021-02-18 14:00:00 17.3 5 Oeste 10 Noroeste 0 -- -- 46
2021-02-18 13:00:00 15.1 5 Noroeste 13 Sur 0 -- -- 52
2021-02-18 12:00:00 13 3 Oeste 12 Oeste 0 -- -- 63
2021-02-18 11:00:00 10.1 7 Norte 14 Norte 0 -- -- 75
2021-02-18 10:00:00 5.2 4 Sudeste 7 Sudeste 0 -- -- 90
2021-02-18 09:00:00 1.5 0 Calma 8 Este 0 -- -- 88
2021-02-18 08:00:00 1.6 2 Nordeste 6 Nordeste 0 -- -- 86
2021-02-18 07:00:00 1.9 0 Calma 6 Nordeste 0 -- -- 85
2021-02-18 06:00:00 2.3 0 Calma 3 Nordeste 0 -- -- 83
2021-02-18 05:00:00 3.3 0 Calma 2 Nordeste 0 -- -- 82
2021-02-18 04:00:00 3.9 0 Calma 5 Sudoeste 0 -- -- 81
2021-02-18 03:00:00 4.7 0 Calma 5 Este 0 -- -- 80
2021-02-18 02:00:00 5.7 0 Calma 2 Sur 0 -- -- 77
2021-02-18 01:00:00 6.6 0 Calma 6 Nordeste 0 -- -- 72
2021-02-18 00:00:00 7.8 4 Nordeste 6 Norte 0 -- -- 67
2021-02-17 23:00:00 8.7 0 Calma 3 Sudoeste 0 -- -- 63
2021-02-17 22:00:00 9.8 3 Norte 6 Nordeste 0 -- -- 59
2021-02-17 21:00:00 11.2 0 Calma 6 Sudeste 0 -- -- 55
2021-02-17 20:00:00 13.3 2 Sudeste 5 Sudeste 0 -- -- 48
2021-02-17 19:00:00 16.6 0 Calma 5 Nordeste 0 -- -- 39
2021-02-17 18:00:00 20.5 0 Calma 9 Noroeste 0 -- -- 31
2021-02-17 17:00:00 21.9 5 Noroeste 13 Oeste 0 -- -- 28
2021-02-17 16:00:00 21 5 Noroeste 12 Noroeste 0 -- -- 31
2021-02-17 15:00:00 19.7 4 Noroeste 10 Noroeste 0 -- -- 33
2021-02-17 14:00:00 16.8 3 Noroeste 7 Norte 0 -- -- 45
2021-02-17 13:00:00 13.5 3 Noroeste 6 Noroeste 0 -- -- 59
2021-02-17 12:00:00 10.4 0 Calma 6 Oeste 0 -- -- 67
2021-02-17 11:00:00 6.4 3 Sudoeste 5 Sur 0 -- -- 78
2021-02-17 10:00:00 3.2 0 Calma 5 Noroeste 0 -- -- 88
2021-02-17 09:00:00 1.3 3 Norte 6 Noroeste 0 -- -- 88
2021-02-17 08:00:00 1.2 0 Calma 3 Nordeste 0 -- -- 87
2021-02-17 07:00:00 1.4 0 Calma 2 Sur 0 -- -- 86
2021-02-17 06:00:00 2.1 0 Calma -- -- 0 -- -- 84
2021-02-17 05:00:00 2.6 0 Calma 5 Norte 0 -- -- 83
2021-02-17 04:00:00 3.2 0 Calma 5 Norte 0 -- -- 81
2021-02-17 03:00:00 3.9 0 Calma 4 Este 0 -- -- 81
2021-02-17 02:00:00 4.7 0 Calma 4 Noroeste 0 -- -- 77
2021-02-17 01:00:00 5.6 4 Noroeste 6 Norte 0 -- -- 73
2021-02-17 00:00:00 6.6 2 Norte 5 Norte 0 -- -- 71
2021-02-16 23:00:00 7.2 3 Norte 8 Norte 0 -- -- 69
2021-02-16 22:00:00 8.4 2 Sur 5 Sur 0 -- -- 64
2021-02-16 21:00:00 9.8 0 Calma 6 Sudeste 0 -- -- 61
2021-02-16 20:00:00 11.8 4 Oeste 9 Noroeste 0 -- -- 54
2021-02-16 19:00:00 14.2 6 Noroeste 11 Oeste 0 -- -- 48
2021-02-16 18:00:00 17.8 6 Noroeste 18 Oeste 0 -- -- 38
2021-02-16 17:00:00 18.4 9 Noroeste 21 Noroeste 0 -- -- 38
2021-02-16 16:00:00 17.5 10 Oeste 19 Noroeste 0 -- -- 41
2021-02-16 15:00:00 16.3 10 Oeste 19 Oeste 0 -- -- 44
2021-02-16 14:00:00 14 5 Oeste 15 Sur 0 -- -- 58
2021-02-16 13:00:00 11 4 Sudoeste 12 Oeste 0 -- -- 70
2021-02-16 12:00:00 6.8 5 Sudoeste 9 Oeste 0 -- -- 94
2021-02-16 11:00:00 3.9 0 Calma 5 Este 0 -- -- 96
2021-02-16 10:00:00 2.1 2 Sudeste 8 Sudeste 0 -- -- 95
2021-02-16 09:00:00 0.9 2 Este 6 Nordeste 0 -- -- 94
2021-02-16 08:00:00 -0.4 4 Nordeste 12 Nordeste 0 -- -- 93
2021-02-16 07:00:00 0.1 0 Calma 7 Nordeste 0 -- -- 92
2021-02-16 06:00:00 0.1 3 Nordeste 8 Norte 0 -- -- 90
2021-02-16 05:00:00 1.9 0 Calma 4 Este 0 -- -- 90
2021-02-16 04:00:00 2.8 0 Calma 7 Nordeste 0 -- -- 90
2021-02-16 03:00:00 3.4 3 Nordeste 6 Nordeste 0 -- -- 89
2021-02-16 02:00:00 4 3 Este 7 Nordeste 0 -- -- 87
2021-02-16 01:00:00 4.8 0 Calma 5 Nordeste 0 -- -- 84
2021-02-16 00:00:00 5.7 3 Sudeste 11 Sur 0 -- -- 83
2021-02-15 23:00:00 6.6 5 Sudeste 15 Sudeste 0 -- -- 82
2021-02-15 22:00:00 7.3 8 Sur 17 Sur 0 -- -- 80
2021-02-15 21:00:00 7.3 2 Este 8 Sudeste 0 -- -- 77
2021-02-15 20:00:00 8.4 3 Sudeste 15 Sur 0 -- -- 72
2021-02-15 19:00:00 9.8 9 Sur 20 Sur 0 -- -- 68
2021-02-15 18:00:00 11.9 12 Sur 21 Sur 0 -- -- 61
2021-02-15 17:00:00 13.5 9 Sudeste 25 Sudeste 0 -- -- 57
2021-02-15 16:00:00 13.6 9 Sur 19 Sudeste 0 -- -- 58
2021-02-15 15:00:00 12.1 10 Sur 25 Sur 0 -- -- 63
2021-02-15 14:00:00 10.8 9 Sur 22 Sudeste 0 -- -- 71
2021-02-15 13:00:00 10.6 11 Sur 22 Sur 0 -- -- 74
2021-02-15 12:00:00 10.2 8 Sur 19 Sur 0 -- -- 76
2021-02-15 11:00:00 8.4 7 Sudeste 14 Sur 0 -- -- 94
2021-02-15 10:00:00 7 3 Este 12 Nordeste 0 -- -- 95
2021-02-15 09:00:00 5.4 6 Nordeste 13 Nordeste 0 -- -- 95
2021-02-15 08:00:00 4.5 4 Nordeste 12 Este 0 -- -- 93
2021-02-15 07:00:00 4.7 5 Nordeste 10 Este 0 -- -- 93
2021-02-15 06:00:00 5.7 5 Nordeste 9 Este 0 -- -- 92
2021-02-15 05:00:00 5.9 4 Nordeste 10 Nordeste 0 -- -- 92
2021-02-15 04:00:00 6.2 5 Nordeste 12 Nordeste 0 -- -- 92
2021-02-15 03:00:00 6.2 5 Nordeste 13 Sudeste 0 -- -- 92
2021-02-15 02:00:00 5.7 4 Este 19 Nordeste 0 -- -- 91
2021-02-15 01:00:00 5.9 8 Nordeste 15 Nordeste 0 -- -- 90
2021-02-15 00:00:00 6.2 8 Nordeste 17 Nordeste 0 -- -- 89
2021-02-14 23:00:00 6.4 10 Nordeste 20 Nordeste 0 -- -- 88
2021-02-14 22:00:00 7 8 Nordeste 18 Nordeste 0 -- -- 85
2021-02-14 21:00:00 8.4 6 Este 22 Sudeste 0 -- -- 80
2021-02-14 20:00:00 9.2 10 Sudeste 27 Este 0 -- -- 78
2021-02-14 19:00:00 10.3 8 Este 27 Este 0 -- -- 74
2021-02-14 18:00:00 12.2 10 Este 26 Sudeste 0 -- -- 65
2021-02-14 17:00:00 14.3 9 Este 24 Sudeste 0 -- -- 57
2021-02-14 16:00:00 15.1 10 Este 24 Este 0 -- -- 56
2021-02-14 15:00:00 15.4 12 Este 25 Sudeste 0 -- -- 55
2021-02-14 14:00:00 15.1 13 Sudeste 26 Sudeste 0 -- -- 55
2021-02-14 13:00:00 13.9 11 Este 31 Sudeste 0 -- -- 59
2021-02-14 12:00:00 12.4 10 Este 22 Nordeste 0 -- -- 61
2021-02-14 11:00:00 8.4 7 Nordeste 13 Nordeste 0 -- -- 80
2021-02-14 10:00:00 4 4 Norte 6 Norte 0 -- -- 90
2021-02-14 09:00:00 1.5 0 Calma 6 Nordeste 0 -- -- 90
2021-02-14 08:00:00 1 2 Este 4 Este 0 -- -- 89
2021-02-14 07:00:00 1.4 0 Calma -- -- 0 -- -- 87
2021-02-14 06:00:00 1.9 0 Calma 2 Nordeste 0 -- -- 86
2021-02-14 05:00:00 2.5 0 Calma 8 Norte 0 -- -- 84
2021-02-14 04:00:00 3.2 0 Calma 5 Sur 0 -- -- 84
2021-02-14 03:00:00 4 3 Oeste 5 Noroeste 0 -- -- 82
2021-02-14 02:00:00 4.8 0 Calma 9 Oeste 0 -- -- 79
2021-02-14 01:00:00 5.6 2 Sudoeste 8 Sudoeste 0 -- -- 77
2021-02-14 00:00:00 6.4 3 Oeste 5 Sudoeste 0 -- -- 75
2021-02-13 23:00:00 7.3 3 Oeste 8 Sudoeste 0 -- -- 71
2021-02-13 22:00:00 8.3 6 Oeste 10 Oeste 0 -- -- 67
2021-02-13 21:00:00 9.5 3 Sudoeste 13 Oeste 0 -- -- 64
2021-02-13 20:00:00 10.7 5 Oeste 13 Oeste 0 -- -- 60
2021-02-13 19:00:00 11.8 8 Noroeste 17 Noroeste 0 -- -- 57
2021-02-13 18:00:00 14.5 10 Noroeste 26 Noroeste 0 -- -- 44
2021-02-13 17:00:00 16 11 Oeste 28 Oeste 0 -- -- 46
2021-02-13 16:00:00 14.9 13 Oeste 37 Noroeste 0 -- -- 52
2021-02-13 15:00:00 15.4 15 Oeste 30 Oeste 0 -- -- 49
2021-02-13 14:00:00 14.3 15 Oeste 31 Oeste 0 -- -- 56
2021-02-13 13:00:00 12.3 18 Noroeste 31 Noroeste 0 -- -- 65
2021-02-13 08:00:00 -- -- -- -- -- -- -- -- --
2021-02-13 07:00:00 4.6 9 Oeste 15 Sudoeste 0 -- -- 89
2021-02-13 06:00:00 4.8 10 Oeste 19 Oeste 0 -- -- 88
2021-02-13 05:00:00 5.3 9 Oeste 21 Oeste 0 -- -- 86
2021-02-13 04:00:00 5.4 8 Oeste 13 Oeste 0 -- -- 85
2021-02-13 03:00:00 5.5 4 Sur 19 Oeste 0 -- -- 83
2021-02-13 02:00:00 6.4 10 Oeste 19 Oeste 0 -- -- 81
2021-02-13 01:00:00 6.7 10 Oeste 19 Oeste 0 -- -- 80
2021-02-13 00:00:00 7.8 13 Oeste 21 Oeste 0 -- -- 76
2021-02-12 23:00:00 8.4 11 Oeste 22 Oeste 0 -- -- 75
2021-02-12 22:00:00 9.1 12 Oeste 24 Oeste 0 -- -- 73
2021-02-12 21:00:00 9.9 9 Oeste 22 Oeste 0 -- -- 70
2021-02-12 20:00:00 10.6 12 Oeste 31 Noroeste 0 -- -- 69
2021-02-12 19:00:00 11.5 18 Noroeste 35 Oeste 0 -- -- 63
2021-02-12 18:00:00 13.3 21 Noroeste 43 Noroeste 0 -- -- 56
2021-02-12 17:00:00 14.5 25 Noroeste 49 Noroeste 0 -- -- 52
2021-02-12 16:00:00 14.7 27 Noroeste 48 Noroeste 0 -- -- 53
2021-02-12 15:00:00 14.6 25 Noroeste 47 Noroeste 0 -- -- 58
2021-02-12 14:00:00 13.4 23 Noroeste 46 Noroeste 0 -- -- 62
2021-02-12 13:00:00 13.8 22 Noroeste 45 Noroeste 0 -- -- 60
2021-02-12 12:00:00 12.2 21 Noroeste 40 Noroeste 0 -- -- 77
2021-02-12 11:00:00 12.3 19 Oeste 32 Oeste 0 -- -- 80
2021-02-12 10:00:00 11.2 12 Oeste 20 Oeste 0 -- -- 86
2021-02-12 09:00:00 10.8 9 Oeste 18 Oeste 0 -- -- 87
2021-02-12 08:00:00 10.9 9 Oeste 23 Oeste 0 -- -- 86
2021-02-12 07:00:00 10.7 12 Oeste 22 Oeste 0 -- -- 88
2021-02-12 06:00:00 10.2 10 Oeste 22 Oeste 0 -- -- 91
2021-02-12 05:00:00 9.5 4 Sudoeste 10 Oeste 0 -- -- 91
2021-02-12 04:00:00 9.8 4 Oeste 6 Oeste 0 -- -- 90
2021-02-12 03:00:00 9.9 4 Oeste 9 Oeste 0 -- -- 90
2021-02-12 02:00:00 9.6 5 Oeste 12 Oeste 0 -- -- 90
2021-02-12 01:00:00 9.2 4 Noroeste 6 Oeste 0 -- -- 88
2021-02-12 00:00:00 9.4 4 Oeste 7 Noroeste 0 -- -- 87
2021-02-11 23:00:00 10 4 Oeste 7 Sudoeste 0 -- -- 86
2021-02-11 22:00:00 10.3 5 Oeste 8 Oeste 0 -- -- 85
2021-02-11 21:00:00 11 5 Oeste 8 Oeste 0 -- -- 83
2021-02-11 20:00:00 11.8 5 Oeste 9 Oeste 0 -- -- 82
2021-02-11 19:00:00 12.2 5 Oeste 10 Sudoeste 0 -- -- 80
2021-02-11 18:00:00 12.7 4 Oeste 15 Noroeste 0 -- -- 79
2021-02-11 17:00:00 13.2 10 Noroeste 31 Oeste 0 -- -- 77
2021-02-11 16:00:00 13.5 16 Noroeste 31 Noroeste 0 -- -- 77
2021-02-11 15:00:00 13.4 16 Noroeste 31 Noroeste 0 -- -- 77
2021-02-11 14:00:00 12.9 19 Noroeste 32 Oeste 0 -- -- 81
2021-02-11 13:00:00 12.3 18 Oeste 34 Noroeste 0 -- -- 86
2021-02-11 12:00:00 10.1 5 Sudoeste 10 Sudoeste 0 -- -- 94
2021-02-11 11:00:00 9.1 3 Sudoeste 12 Noroeste 0 -- -- 94
2021-02-11 10:00:00 8.1 4 Oeste 11 Oeste 0 -- -- 94
2021-02-11 09:00:00 7.6 6 Oeste 15 Oeste 0 -- -- 93
2021-02-11 08:00:00 7.4 10 Oeste 19 Oeste 0 -- -- 93
2021-02-11 07:00:00 7 8 Oeste 15 Oeste 0 -- -- 92
2021-02-11 06:00:00 6.5 8 Oeste 14 Oeste 0 -- -- 90
2021-02-11 05:00:00 5.8 7 Oeste 16 Oeste 0 -- -- 90
2021-02-11 04:00:00 5 9 Oeste 15 Oeste 0 -- -- 88
2021-02-11 03:00:00 4.8 7 Oeste 14 Oeste 0 -- -- 85
2021-02-11 02:00:00 5.5 9 Oeste 16 Oeste 0 -- -- 82
2021-02-11 01:00:00 6.3 11 Oeste 21 Oeste 0 -- -- 78
2021-02-11 00:00:00 7.1 13 Oeste 23 Oeste 0 -- -- 76
2021-02-10 23:00:00 7.6 10 Oeste 17 Oeste 0 -- -- 75
2021-02-10 22:00:00 8.2 6 Oeste 15 Oeste 0 -- -- 74
2021-02-10 21:00:00 8.7 9 Oeste 16 Oeste 0 -- -- 73
2021-02-10 20:00:00 8.9 3 Sudoeste 9 Oeste 0 -- -- 69
2021-02-10 19:00:00 10.1 7 Noroeste 25 Noroeste 0 -- -- 63
2021-02-10 18:00:00 12.4 16 Noroeste 35 Noroeste 0 -- -- 52
2021-02-10 17:00:00 13.8 21 Noroeste 45 Oeste 0 -- -- 49
2021-02-10 16:00:00 13.7 23 Noroeste 49 Oeste 0 -- -- 50
2021-02-10 15:00:00 13.4 22 Noroeste 48 Oeste 0 -- -- 57
2021-02-10 14:00:00 12.5 28 Noroeste 47 Noroeste 0 -- -- 57
2021-02-10 13:00:00 11.5 26 Noroeste 48 Oeste 0 -- -- 64
2021-02-10 12:00:00 10.8 25 Oeste 51 Oeste 0 -- -- 71
2021-02-10 11:00:00 9.7 21 Noroeste 45 Oeste 0 -- -- 79
2021-02-10 10:00:00 8.7 20 Oeste 45 Oeste 0 -- -- 82
2021-02-10 09:00:00 9.1 27 Oeste 57 Oeste 0 -- -- 78
2021-02-10 08:00:00 9 30 Oeste 53 Oeste 0.2 -- -- 73
2021-02-10 07:00:00 8.3 23 Oeste 51 Oeste 0 -- -- 76
2021-02-10 06:00:00 8.7 28 Oeste 66 Oeste 0.2 -- -- 68
2021-02-10 05:00:00 8.6 33 Oeste 60 Oeste 0.2 -- -- 71
2021-02-10 04:00:00 7.8 25 Oeste 49 Oeste 3 -- -- 90
2021-02-10 03:00:00 8.5 15 Oeste 41 Oeste 0 -- -- 84
2021-02-10 02:00:00 8.9 24 Oeste 46 Oeste 0 -- -- 82
2021-02-10 01:00:00 9.3 23 Oeste 50 Oeste 0 -- -- 80
2021-02-10 00:00:00 9.4 18 Oeste 50 Sudoeste 0 -- -- 82
2021-02-09 23:00:00 9.6 21 Oeste 42 Oeste 0 -- -- 85
2021-02-09 22:00:00 9.1 15 Oeste 33 Oeste 0 -- -- 88
2021-02-09 21:00:00 9.3 15 Oeste 36 Oeste 0 -- -- 88
2021-02-09 20:00:00 9.4 12 Oeste 50 Noroeste 0.6 -- -- 88
2021-02-09 19:00:00 11.4 20 Oeste 54 Oeste 0.2 -- -- 76
2021-02-09 18:00:00 11.2 19 Oeste 56 Oeste 0 -- -- 77
2021-02-09 17:00:00 12.2 23 Oeste 57 Oeste 0 -- -- 68
2021-02-09 16:00:00 12 27 Oeste 65 Sudoeste 0 -- -- 68
2021-02-09 15:00:00 12 33 Oeste 63 Oeste 0 -- -- 66
2021-02-09 14:00:00 11.9 24 Sudoeste 50 Oeste 0 -- -- 63
2021-02-09 13:00:00 10.9 21 Oeste 47 Oeste 0 -- -- 68
2021-02-09 12:00:00 9.7 24 Oeste 41 Oeste 0 -- -- 78
2021-02-09 11:00:00 9.4 15 Oeste 34 Oeste 0 -- -- 77
2021-02-09 10:00:00 7.7 13 Sudoeste 32 Sudoeste 0 -- -- 83
2021-02-09 09:00:00 6.8 11 Oeste 26 Oeste 0 -- -- 84
2021-02-09 08:00:00 6.3 16 Oeste 25 Oeste 0 -- -- 85
2021-02-09 07:00:00 6.3 11 Oeste 31 Oeste 0 -- -- 85
2021-02-09 06:00:00 6.6 13 Oeste 37 Oeste 0 -- -- 85
2021-02-09 05:00:00 6.6 18 Oeste 34 Oeste 0 -- -- 82
2021-02-09 04:00:00 6.6 19 Oeste 45 Noroeste 0 -- -- 83
2021-02-09 03:00:00 6.4 22 Noroeste 54 Noroeste 0 -- -- 83
2021-02-09 02:00:00 6.4 26 Noroeste 42 Noroeste 0 -- -- 82
2021-02-09 01:00:00 6.6 18 Oeste 39 Noroeste 0 -- -- 81
2021-02-09 00:00:00 6.8 17 Oeste 34 Oeste 0 -- -- 79
2021-02-08 23:00:00 7.1 17 Oeste 42 Oeste 0 -- -- 79
2021-02-08 22:00:00 7.8 22 Oeste 47 Oeste 0 -- -- 75
2021-02-08 21:00:00 7.7 20 Oeste 45 Oeste 0 -- -- 77
2021-02-08 20:00:00 8.2 24 Oeste 47 Oeste 0 -- -- 75
2021-02-08 19:00:00 8.4 18 Oeste 41 Sudoeste 0 -- -- 76
2021-02-08 18:00:00 7.9 11 Oeste 34 Oeste 0.2 -- -- 86
2021-02-08 17:00:00 6.8 21 Oeste 54 Oeste 2 -- -- 88
2021-02-08 16:00:00 5.9 14 Noroeste 47 Noroeste 4.6 -- -- 89
2021-02-08 15:00:00 9.4 24 Noroeste 61 Noroeste 0.2 -- -- 81
2021-02-08 14:00:00 11 31 Oeste 58 Oeste 0 -- -- 62
2021-02-08 13:00:00 10.1 33 Oeste 58 Oeste 0 -- -- 66
2021-02-08 12:00:00 9.3 28 Oeste 57 Oeste 0 -- -- 72
2021-02-08 11:00:00 8.7 25 Oeste 47 Oeste 0 -- -- 78
2021-02-08 10:00:00 7.9 25 Oeste 49 Oeste 0.2 -- -- 77
2021-02-08 09:00:00 8.1 22 Oeste 42 Oeste 1.4 -- -- 88
2021-02-08 08:00:00 7.9 15 Oeste 31 Oeste 0.8 -- -- 84
2021-02-08 07:00:00 7.5 13 Oeste 28 Sudoeste 0 -- -- 82
2021-02-08 06:00:00 7.1 14 Sudoeste 27 Oeste 0 -- -- 83
2021-02-08 05:00:00 6.8 13 Oeste 32 Sudoeste 0 -- -- 82
2021-02-08 04:00:00 6.6 12 Oeste 37 Oeste 0 -- -- 81
2021-02-08 03:00:00 6.7 21 Oeste 39 Oeste 0 -- -- 79
2021-02-08 02:00:00 6.3 18 Oeste 32 Oeste 0 -- -- 79
2021-02-08 01:00:00 5.9 9 Oeste 35 Oeste 0 -- -- 79
2021-02-08 00:00:00 5.9 19 Oeste 39 Oeste 0 -- -- 78
2021-02-07 23:00:00 6.2 19 Oeste 46 Oeste 0 -- -- 73
2021-02-07 22:00:00 7.3 20 Oeste 42 Oeste 0 -- -- 73
2021-02-07 21:00:00 8.1 21 Oeste 46 Oeste 0 -- -- 68
2021-02-07 20:00:00 8.5 21 Oeste 41 Oeste 0 -- -- 67
2021-02-07 19:00:00 8.9 21 Oeste 41 Oeste 0 -- -- 71
2021-02-07 18:00:00 9.4 15 Oeste 36 Oeste 0 -- -- 70
2021-02-07 17:00:00 10.3 18 Oeste 45 Noroeste 0 -- -- 63
2021-02-07 16:00:00 9.9 21 Oeste 38 Oeste 0 -- -- 64
2021-02-07 15:00:00 9.6 21 Noroeste 37 Noroeste 0 -- -- 62
2021-02-07 14:00:00 9.4 18 Oeste 34 Noroeste 0 -- -- 63
2021-02-07 13:00:00 9.2 19 Noroeste 33 Noroeste 0 -- -- 64
2021-02-07 12:00:00 10.2 18 Noroeste 30 Noroeste 0 -- -- 64
2021-02-07 11:00:00 9.1 14 Noroeste 28 Noroeste 0 -- -- 71
2021-02-07 10:00:00 7.3 14 Noroeste 26 Noroeste 0 -- -- 85
2021-02-07 09:00:00 6.9 10 Oeste 20 Oeste 0 -- -- 90
2021-02-07 08:00:00 7 9 Oeste 21 Oeste 0 -- -- 90
2021-02-07 07:00:00 7.2 9 Oeste 19 Oeste 0 -- -- 91
2021-02-07 06:00:00 7.3 10 Oeste 19 Oeste 0 -- -- 91
2021-02-07 05:00:00 7.1 5 Oeste 13 Oeste 0 -- -- 91
2021-02-07 04:00:00 7 6 Oeste 15 Oeste 0 -- -- 90
2021-02-07 03:00:00 7.1 7 Oeste 16 Noroeste 0 -- -- 90
2021-02-07 02:00:00 7.3 5 Oeste 13 Oeste 0 -- -- 90
2021-02-07 01:00:00 7.7 8 Oeste 13 Oeste 0 -- -- 90
2021-02-07 00:00:00 7.9 8 Oeste 16 Oeste 0 -- -- 90
2021-02-06 23:00:00 7.9 5 Oeste 10 Oeste 0.2 -- -- 90
2021-02-06 22:00:00 7.8 6 Oeste 12 Noroeste 0 -- -- 90
2021-02-06 21:00:00 7.9 4 Oeste 15 Oeste 0 -- -- 88
2021-02-06 20:00:00 8 8 Oeste 21 Oeste 0.2 -- -- 88
2021-02-06 19:00:00 8.3 7 Noroeste 27 Noroeste 0.8 -- -- 87
2021-02-06 18:00:00 9.8 9 Noroeste 28 Oeste 0 -- -- 76
2021-02-06 17:00:00 11 14 Oeste 33 Oeste 0 -- -- 65
2021-02-06 16:00:00 12.1 19 Oeste 37 Oeste 0 -- -- 58
2021-02-06 15:00:00 12.8 22 Oeste 40 Oeste 0 -- -- 56
2021-02-06 14:00:00 11.7 18 Oeste 35 Oeste 0 -- -- 66
2021-02-06 13:00:00 9.9 15 Oeste 31 Oeste 0 -- -- 85
2021-02-06 12:00:00 9 3 Noroeste 9 Norte 0 -- -- 93
2021-02-06 11:00:00 7.2 0 Calma 6 Norte 0 -- -- 95
2021-02-06 10:00:00 5.6 0 Calma 7 Norte 0 -- -- 95
2021-02-06 09:00:00 4.7 0 Calma 4 Sur 0 -- -- 95
2021-02-06 08:00:00 5.1 0 Calma 3 Sur 0 -- -- 94
2021-02-06 07:00:00 4.5 0 Calma 13 Noroeste 0 -- -- 93
2021-02-06 06:00:00 6.3 0 Calma 12 Sudoeste 0 -- -- 93
2021-02-06 05:00:00 7.1 4 Oeste 10 Oeste 0 -- -- 93
2021-02-06 04:00:00 7.4 3 Este 10 Este 0 -- -- 93
2021-02-06 03:00:00 7.6 4 Este 12 Nordeste 0.4 -- -- 92
2021-02-06 02:00:00 8.2 4 Este 8 Nordeste 0 -- -- 92
2021-02-06 01:00:00 8.4 2 Este 18 Nordeste 0 -- -- 91
2021-02-06 00:00:00 8.4 10 Nordeste 18 Nordeste 0 -- -- 90
2021-02-05 23:00:00 8.4 7 Nordeste 19 Nordeste 0 -- -- 89
2021-02-05 22:00:00 8.4 7 Nordeste 25 Este 0 -- -- 88
2021-02-05 21:00:00 8.6 11 Este 27 Sudeste 0 -- -- 87
2021-02-05 20:00:00 8.7 11 Este 26 Este 0 -- -- 86
2021-02-05 19:00:00 9.2 9 Este 38 Este 0 -- -- 85
2021-02-05 18:00:00 10.1 20 Sudeste 39 Sudeste 0 -- -- 81
2021-02-05 17:00:00 11.6 10 Este 32 Sudeste 0 -- -- 77
2021-02-05 16:00:00 12.4 15 Este 34 Sudeste 0 -- -- 73
2021-02-05 15:00:00 13.5 20 Sudeste 36 Sudeste 0 -- -- 70
2021-02-05 14:00:00 13.4 9 Este 25 Sudeste 0 -- -- 69
2021-02-05 13:00:00 13.4 10 Este 24 Este 0 -- -- 70
2021-02-05 12:00:00 11.7 14 Este 28 Este 0 -- -- 77
2021-02-05 11:00:00 9.8 10 Este 30 Sudeste 0 -- -- 85
2021-02-05 10:00:00 8.6 12 Nordeste 25 Este 0 -- -- 90
2021-02-05 09:00:00 7.4 12 Nordeste 24 Este 0 -- -- 92
2021-02-05 08:00:00 7 11 Nordeste 27 Nordeste 0 -- -- 91
2021-02-05 07:00:00 7.3 14 Nordeste 27 Nordeste 0 -- -- 91
2021-02-05 06:00:00 7.7 13 Nordeste 31 Nordeste 0 -- -- 90
2021-02-05 05:00:00 7.8 13 Nordeste 30 Nordeste 0 -- -- 89
2021-02-05 04:00:00 8.4 9 Nordeste 30 Nordeste 0 -- -- 86
2021-02-05 03:00:00 8.8 14 Nordeste 27 Nordeste 0 -- -- 84
2021-02-05 02:00:00 8.4 7 Este 21 Este 0 -- -- 87
2021-02-05 01:00:00 7.7 12 Nordeste 23 Nordeste 0 -- -- 88
2021-02-05 00:00:00 8.4 12 Nordeste 23 Nordeste 0 -- -- 86
2021-02-04 23:00:00 8.7 12 Nordeste 22 Nordeste 0 -- -- 86
2021-02-04 22:00:00 9.8 8 Nordeste 19 Nordeste 0 -- -- 84
2021-02-04 21:00:00 10.2 9 Nordeste 19 Nordeste 0 -- -- 83
2021-02-04 20:00:00 11.4 8 Nordeste 18 Nordeste 0 -- -- 77
2021-02-04 19:00:00 12.5 6 Nordeste 19 Nordeste 0 -- -- 73
2021-02-04 18:00:00 14.1 10 Nordeste 22 Nordeste 0 -- -- 67
2021-02-04 17:00:00 17.4 5 Nordeste 18 Sudoeste 0 -- -- 54
2021-02-04 16:00:00 18.3 11 Sur 21 Sur 0 -- -- 41
2021-02-04 15:00:00 18.1 0 Calma 14 Nordeste 0 -- -- 51
2021-02-04 14:00:00 17.2 9 Nordeste 16 Nordeste 0 -- -- 58
2021-02-04 13:00:00 15.6 6 Nordeste 16 Nordeste 0 -- -- 65
2021-02-04 12:00:00 13.5 3 Sur 14 Nordeste 0 -- -- 75
2021-02-04 11:00:00 10.4 10 Nordeste 27 Oeste 0 -- -- 87
2021-02-04 10:00:00 7 5 Norte 13 Oeste 0 -- -- 93
2021-02-04 09:00:00 5.7 3 Este 16 Sudoeste 0 -- -- 92
2021-02-04 08:00:00 5.5 0 Calma 5 Sudeste 0 -- -- 91
2021-02-04 07:00:00 5.7 0 Calma 5 Norte 0 -- -- 91
2021-02-04 06:00:00 6.1 0 Calma 5 Norte 0 -- -- 90
2021-02-04 05:00:00 6.2 0 Calma 6 Norte 0 -- -- 90
2021-02-04 04:00:00 6.8 0 Calma 5 Nordeste 0 -- -- 89
2021-02-04 03:00:00 7 0 Calma 6 Noroeste 0 -- -- 87
2021-02-04 02:00:00 7.5 3 Noroeste 5 Noroeste 0 -- -- 86
2021-02-04 01:00:00 7.9 0 Calma 5 Noroeste 0 -- -- 85
2021-02-04 00:00:00 8.3 0 Calma 5 Noroeste 0 -- -- 84